createdAt,value
2022-12-27T16:09:19.223Z,101023.41
2022-12-27T16:10:33.562Z,101027.44
2022-12-27T16:12:02.228Z,101022.88
2022-12-27T16:13:12.917Z,101022.09
2022-12-27T16:14:29.086Z,101023.00
2022-12-27T16:15:54.440Z,101021.03
2022-12-27T16:17:07.235Z,101020.50
2022-12-27T16:18:31.603Z,101018.84
2022-12-27T16:19:41.427Z,101013.59
2022-12-27T16:20:55.335Z,101020.31
2022-12-27T16:22:55.202Z,101015.56
2022-12-27T16:24:14.165Z,101004.50
2022-12-27T16:25:18.975Z,101017.44
2022-12-27T16:26:25.272Z,101007.91
2022-12-27T16:27:33.010Z,101011.78
2022-12-27T16:28:37.292Z,101008.75
2022-12-27T16:29:44.640Z,101007.63
2022-12-27T16:30:50.010Z,101002.31
2022-12-27T16:32:11.200Z,100999.88
2022-12-27T16:33:34.948Z,100992.34
2022-12-27T16:34:36.605Z,100998.75
2022-12-27T16:35:38.505Z,101009.69
2022-12-27T16:36:48.220Z,100989.81
2022-12-27T16:37:54.948Z,100985.81
2022-12-27T16:39:14.628Z,100997.03
2022-12-27T16:40:44.859Z,100997.50
2022-12-27T16:41:58.515Z,101000.03
2022-12-27T16:43:09.210Z,100998.31
2022-12-27T16:44:26.340Z,101006.19
2022-12-27T16:45:49.591Z,101000.06
2022-12-27T16:47:09.792Z,101010.66
2022-12-27T16:48:34.662Z,101002.59
2022-12-27T16:50:00.371Z,101004.63
2022-12-27T16:51:16.939Z,101002.16
2022-12-27T16:52:47.370Z,101002.47
2022-12-27T16:54:00.522Z,101004.66
2022-12-27T16:55:23.235Z,101006.09
2022-12-27T16:56:28.533Z,101000.47
2022-12-27T16:57:41.545Z,101000.81
2022-12-27T16:58:43.635Z,101000.66
2022-12-27T17:00:04.129Z,101000.19
2022-12-27T17:01:26.920Z,101001.75
2022-12-27T17:02:40.982Z,100998.41
2022-12-27T17:03:45.063Z,100988.41
2022-12-27T17:04:50.393Z,100995.66
2022-12-27T17:06:30.778Z,100989.16
2022-12-27T17:07:37.096Z,100992.16
2022-12-27T17:08:38.928Z,100996.41
2022-12-27T17:09:41.931Z,100996.16
2022-12-27T17:10:55.292Z,100989.28
2022-12-27T17:11:56.924Z,100984.22
2022-12-27T17:13:13.426Z,100983.72
2022-12-27T17:14:25.359Z,100977.78
2022-12-27T17:15:29.274Z,100974.72
2022-12-27T17:16:48.197Z,100959.09
2022-12-27T17:17:58.939Z,100959.78
2022-12-27T17:19:05.158Z,100963.91
2022-12-27T17:20:16.616Z,100960.94
2022-12-27T17:21:30.527Z,100957.25
2022-12-27T17:22:35.882Z,100958.13
2022-12-27T17:23:40.407Z,100966.88
2022-12-27T17:24:45.362Z,100972.25
2022-12-27T17:25:58.879Z,100973.25
2022-12-27T17:27:15.708Z,100982.00
2022-12-27T17:28:30.645Z,100976.78
2022-12-27T17:30:09.972Z,100972.25
2022-12-27T17:31:22.712Z,100974.47
2022-12-27T17:32:58.371Z,100975.47
2022-12-27T17:34:11.328Z,100979.28
2022-12-27T17:35:12.974Z,100970.53
2022-12-27T17:36:34.844Z,100969.94
2022-12-27T17:38:05.150Z,100981.66
2022-12-27T17:39:24.978Z,100975.44
2022-12-27T17:40:35.532Z,100978.28
2022-12-27T17:42:14.792Z,100975.66
2022-12-27T17:43:38.003Z,100980.22
2022-12-27T17:44:56.081Z,100980.09
2022-12-27T17:46:17.861Z,100981.50
2022-12-27T17:48:00.053Z,100978.72
2022-12-27T17:49:02.161Z,100992.31
2022-12-27T17:50:11.591Z,100971.00
2022-12-27T17:51:18.712Z,100970.59
2022-12-27T17:52:44.050Z,100972.44
2022-12-27T17:54:06.490Z,100965.09
2022-12-27T17:55:43.163Z,100971.53
2022-12-27T17:57:04.582Z,100960.63
2022-12-27T17:58:16.150Z,100961.50
2022-12-27T17:59:25.707Z,100961.63
2022-12-27T18:00:31.448Z,100957.38
2022-12-27T18:01:43.673Z,100947.19
2022-12-27T18:02:45.733Z,100953.56
2022-12-27T18:03:48.789Z,100956.50
2022-12-27T18:04:55.258Z,100940.38
2022-12-27T18:05:57.405Z,100950.28
2022-12-27T18:07:03.119Z,100945.47
2022-12-27T18:08:08.506Z,100937.81
2022-12-27T18:09:38.258Z,100931.16
2022-12-27T18:10:41.511Z,100930.59
2022-12-27T18:11:43.113Z,100930.16
2022-12-27T18:12:49.396Z,100930.69
2022-12-27T18:13:54.200Z,100921.63
2022-12-27T18:15:01.139Z,100926.41
2022-12-27T18:16:15.031Z,100918.22
2022-12-27T18:17:28.748Z,100916.22
2022-12-27T18:18:34.673Z,100912.84
2022-12-27T18:19:36.270Z,100920.59
2022-12-27T18:20:39.201Z,100907.31
2022-12-27T18:21:54.846Z,100912.53
2022-12-27T18:23:02.595Z,100909.00
2022-12-27T18:24:23.677Z,100897.53
2022-12-27T18:25:27.703Z,100901.22
2022-12-27T18:26:39.268Z,100904.09
2022-12-27T18:27:41.161Z,100905.22
2022-12-27T18:28:43.351Z,100908.03
2022-12-27T18:29:46.378Z,100899.97
2022-12-27T18:30:50.871Z,100905.34
2022-12-27T18:31:56.197Z,100899.97
2022-12-27T18:32:59.217Z,100906.38
2022-12-27T18:34:15.237Z,100901.09
2022-12-27T18:35:24.091Z,100902.13
2022-12-27T18:36:29.183Z,100904.13
2022-12-27T18:37:35.383Z,100898.03
2022-12-27T18:38:43.374Z,100897.47
2022-12-27T18:40:04.862Z,100900.44
2022-12-27T18:41:10.085Z,100901.75
2022-12-27T18:42:37.838Z,100895.84
2022-12-27T18:43:45.013Z,100893.97
2022-12-27T18:44:54.798Z,100901.34
2022-12-27T18:45:57.321Z,100893.44
2022-12-27T18:47:02.381Z,100894.41
2022-12-27T18:48:12.184Z,100900.78
2022-12-27T18:49:43.984Z,100895.41
2022-12-27T18:50:51.761Z,100897.25
2022-12-27T18:51:55.147Z,100890.31
2022-12-27T18:53:03.529Z,100896.28
2022-12-27T18:54:21.960Z,100894.28
2022-12-27T18:55:28.800Z,100900.34
2022-12-27T18:56:33.163Z,100889.44
2022-12-27T18:57:36.751Z,100887.59
2022-12-27T18:58:38.443Z,100896.53
2022-12-27T18:59:40.088Z,100891.16
2022-12-27T19:00:51.693Z,100902.75
2022-12-27T19:01:55.334Z,100895.66
2022-12-27T19:03:18.848Z,100888.47
2022-12-27T19:04:22.838Z,100892.13
2022-12-27T19:05:28.001Z,100882.38
2022-12-27T19:06:32.010Z,100887.78
2022-12-27T19:07:34.051Z,100890.28
2022-12-27T19:08:39.070Z,100888.47
2022-12-27T19:10:01.881Z,100884.75
2022-12-27T19:11:05.009Z,100891.84
2022-12-27T19:12:21.305Z,100885.47
2022-12-27T19:13:29.816Z,100892.38
2022-12-27T19:14:41.810Z,100859.34
2022-12-27T19:15:44.897Z,100854.13
2022-12-27T19:16:59.073Z,100888.88
2022-12-27T19:18:04.199Z,100878.41
2022-12-27T19:19:18.328Z,100873.88
2022-12-27T19:20:29.332Z,100877.41
2022-12-27T19:21:35.320Z,100880.94
2022-12-27T19:23:03.327Z,100869.34
2022-12-27T19:24:23.615Z,100878.25
2022-12-27T19:25:27.163Z,100867.66
2022-12-27T19:26:32.449Z,100872.03
2022-12-27T19:27:34.295Z,100865.81
2022-12-27T19:28:36.637Z,100872.88
2022-12-27T19:29:51.446Z,100871.03
2022-12-27T19:31:18.592Z,100865.13
2022-12-27T19:32:28.815Z,100869.66
2022-12-27T19:33:34.568Z,100864.28
2022-12-27T19:34:44.291Z,100869.66
2022-12-27T19:35:46.208Z,100867.94
2022-12-27T19:36:49.219Z,100867.94
2022-12-27T19:37:50.928Z,100866.97
2022-12-27T19:38:53.606Z,100869.66
2022-12-27T19:39:55.472Z,100866.28
2022-12-27T19:41:03.583Z,100860.56
2022-12-27T19:42:08.484Z,100854.09
2022-12-27T19:43:13.396Z,100865.25
2022-12-27T19:44:15.424Z,100865.56
2022-12-27T19:45:18.104Z,100861.19
2022-12-27T19:46:19.950Z,100863.00
2022-12-27T19:47:21.675Z,100867.53
2022-12-27T19:48:23.298Z,100858.78
2022-12-27T19:49:42.915Z,100857.78
2022-12-27T19:50:51.599Z,100859.63
2022-12-27T19:51:55.850Z,100855.25
2022-12-27T19:52:58.967Z,100854.41
2022-12-27T19:54:00.767Z,100853.56
2022-12-27T19:55:07.212Z,100843.38
2022-12-27T19:56:09.176Z,100852.69
2022-12-27T19:57:12.372Z,100836.28
2022-12-27T19:58:27.001Z,100848.34
2022-12-27T19:59:28.727Z,100852.13
2022-12-27T20:00:30.458Z,100842.38
2022-12-27T20:01:32.349Z,100842.53
2022-12-27T20:02:34.304Z,100844.50
2022-12-27T20:03:36.512Z,100842.81
2022-12-27T20:04:38.212Z,100839.44
2022-12-27T20:06:13.839Z,100860.06
2022-12-27T20:07:02.943Z,100844.25
2022-12-27T20:08:06.342Z,100838.31
2022-12-27T20:09:15.257Z,100836.47
2022-12-27T20:10:17.367Z,100836.59
2022-12-27T20:11:23.516Z,100841.16
2022-12-27T20:12:25.691Z,100835.09
2022-12-27T20:13:28.443Z,100827.59
2022-12-27T20:14:30.086Z,100827.47
2022-12-27T20:15:31.978Z,100832.13
2022-12-27T20:16:34.092Z,100829.59
2022-12-27T20:17:41.072Z,100825.34
2022-12-27T20:18:46.904Z,100824.66
2022-12-27T20:19:48.741Z,100824.81
2022-12-27T20:20:51.241Z,100828.63
2022-12-27T20:21:52.911Z,100834.00
2022-12-27T20:22:54.664Z,100829.59
2022-12-27T20:23:56.306Z,100833.31
2022-12-27T20:24:57.870Z,100835.28
2022-12-27T20:25:59.922Z,100823.81
2022-12-27T20:27:01.824Z,100827.66
2022-12-27T20:28:03.547Z,100811.69
2022-12-27T20:29:05.401Z,100826.25
2022-12-27T20:30:07.623Z,100821.03
2022-12-27T20:31:12.273Z,100821.19
2022-12-27T20:32:13.868Z,100814.25
2022-12-27T20:33:16.262Z,100817.22
2022-12-27T20:34:18.630Z,100815.50
2022-12-27T20:35:20.275Z,100815.66
2022-12-27T20:36:22.873Z,100820.19
2022-12-27T20:37:25.089Z,100814.25
2022-12-27T20:38:26.989Z,100814.38
2022-12-27T20:39:28.684Z,100806.63
2022-12-27T20:40:30.452Z,100808.59
2022-12-27T20:41:32.103Z,100807.91
2022-12-27T20:42:34.037Z,100816.22
2022-12-27T20:43:36.199Z,100804.09
2022-12-27T20:44:40.117Z,100805.34
2022-12-27T20:45:41.692Z,100799.59
2022-12-27T20:46:43.385Z,100795.47
2022-12-27T20:47:45.062Z,100794.06
2022-12-27T20:48:47.336Z,100802.28
2022-12-27T20:49:48.919Z,100804.38
2022-12-27T20:50:51.087Z,100808.19
2022-12-27T20:51:53.000Z,100796.91
2022-12-27T20:52:54.870Z,100801.69
2022-12-27T20:53:58.321Z,100796.63
2022-12-27T20:55:00.474Z,100795.75
2022-12-27T20:56:04.036Z,100801.72
2022-12-27T20:57:05.789Z,100800.84
2022-12-27T20:58:07.548Z,100798.44
2022-12-27T20:59:09.266Z,100801.38
2022-12-27T21:00:12.257Z,100807.84
2022-12-27T21:01:16.963Z,100806.19
2022-12-27T21:02:19.825Z,100794.47
2022-12-27T21:03:21.843Z,100801.22
2022-12-27T21:04:23.574Z,100798.69
2022-12-27T21:05:25.239Z,100794.31
2022-12-27T21:06:28.477Z,100803.31
2022-12-27T21:07:30.111Z,100797.25
2022-12-27T21:08:40.367Z,100808.13
2022-12-27T21:09:46.507Z,100795.44
2022-12-27T21:10:48.705Z,100800.94
2022-12-27T21:11:53.332Z,100798.25
2022-12-27T21:12:54.959Z,100802.34
2022-12-27T21:13:57.383Z,100796.41
2022-12-27T21:14:59.189Z,100794.97
2022-12-27T21:16:00.982Z,100796.25
2022-12-27T21:17:03.163Z,100799.19
2022-12-27T21:18:05.692Z,100790.75
2022-12-27T21:19:07.756Z,100801.56
2022-12-27T21:20:11.236Z,100801.03
2022-12-27T21:21:19.307Z,100795.94
2022-12-27T21:22:21.384Z,100800.72
2022-12-27T21:23:23.108Z,100793.22
2022-12-27T21:24:24.752Z,100785.03
2022-12-27T21:25:26.678Z,100795.47
2022-12-27T21:26:30.727Z,100797.41
2022-12-27T21:27:32.508Z,100787.72
2022-12-27T21:28:34.837Z,100791.47
2022-12-27T21:29:36.601Z,100791.72
2022-12-27T21:30:38.262Z,100784.81
2022-12-27T21:31:40.161Z,100793.84
2022-12-27T21:32:41.693Z,100787.91
2022-12-27T21:33:43.792Z,100783.53
2022-12-27T21:34:45.766Z,100783.81
2022-12-27T21:35:56.176Z,100784.75
2022-12-27T21:36:57.831Z,100783.22
2022-12-27T21:37:59.627Z,100781.66
2022-12-27T21:39:02.156Z,100783.63
2022-12-27T21:40:04.097Z,100781.94
2022-12-27T21:41:09.702Z,100783.03
2022-12-27T21:42:12.511Z,100784.03
2022-12-27T21:43:14.367Z,100782.47
2022-12-27T21:44:16.646Z,100788.81
2022-12-27T21:45:18.604Z,100784.41
2022-12-27T21:46:22.208Z,100787.38
2022-12-27T21:47:24.129Z,100769.16
2022-12-27T21:48:25.932Z,100779.88
2022-12-27T21:49:27.760Z,100774.91
2022-12-27T21:50:35.384Z,100787.06
2022-12-27T21:51:40.527Z,100781.00
2022-12-27T21:52:42.426Z,100777.88
2022-12-27T21:53:44.889Z,100780.41
2022-12-27T21:54:46.715Z,100776.03
2022-12-27T21:55:48.542Z,100760.38
2022-12-27T21:56:51.114Z,100770.97
2022-12-27T21:57:52.695Z,100764.91
2022-12-27T21:58:58.309Z,100755.31
2022-12-27T22:00:00.069Z,100759.78
2022-12-27T22:01:09.379Z,100750.06
2022-12-27T22:02:11.332Z,100744.13
2022-12-27T22:03:13.555Z,100745.97
2022-12-27T22:04:15.373Z,100745.25
2022-12-27T22:05:17.490Z,100741.88
2022-12-27T22:06:26.544Z,100738.44
2022-12-27T22:07:28.397Z,100733.50
2022-12-27T22:08:31.165Z,100736.88
2022-12-27T22:09:32.702Z,100733.50
2022-12-27T22:10:34.264Z,100733.59
2022-12-27T22:11:37.700Z,100732.88
2022-12-27T22:12:39.567Z,100736.28
2022-12-27T22:13:42.494Z,100737.28
2022-12-27T22:14:44.523Z,100736.56
2022-12-27T22:15:57.685Z,100729.66
2022-12-27T22:17:00.585Z,100728.94
2022-12-27T22:18:02.259Z,100724.41
2022-12-27T22:19:12.192Z,100731.72
2022-12-27T22:20:13.843Z,100723.38
2022-12-27T22:21:18.520Z,100724.81
2022-12-27T22:22:20.286Z,100725.94
2022-12-27T22:23:21.879Z,100721.56
2022-12-27T22:24:23.596Z,100721.00
2022-12-27T22:25:25.311Z,100723.53
2022-12-27T22:26:39.180Z,100730.84
2022-12-27T22:27:40.849Z,100729.13
2022-12-27T22:28:42.934Z,100721.34
2022-12-27T22:29:44.688Z,100722.22
2022-12-27T22:30:46.693Z,100721.50
2022-12-27T22:31:48.310Z,100727.84
2022-12-27T22:32:50.099Z,100719.22
2022-12-27T22:33:52.378Z,100728.81
2022-12-27T22:34:54.085Z,100727.09
2022-12-27T22:36:04.922Z,100731.63
2022-12-27T22:37:06.555Z,100719.47
2022-12-27T22:38:08.159Z,100726.78
2022-12-27T22:39:09.984Z,100725.22
2022-12-27T22:40:26.959Z,100733.97
2022-12-27T22:41:35.293Z,100720.72
2022-12-27T22:42:37.170Z,100730.56
2022-12-27T22:43:40.346Z,100729.00
2022-12-27T22:44:43.746Z,100725.50
2022-12-27T22:45:50.316Z,100726.44
2022-12-27T22:47:25.064Z,100722.22
2022-12-27T22:48:20.750Z,100730.50
2022-12-27T22:49:22.475Z,100727.94
2022-12-27T22:50:24.096Z,100727.94
2022-12-27T22:51:29.283Z,100722.75
2022-12-27T22:52:30.986Z,100732.56
2022-12-27T22:53:32.877Z,100730.91
2022-12-27T22:55:05.114Z,100724.81
2022-12-27T22:55:56.655Z,100726.66
2022-12-27T22:56:58.310Z,100726.75
2022-12-27T22:58:00.288Z,100723.25
2022-12-27T22:59:05.509Z,100728.72
2022-12-27T23:00:12.466Z,100732.38
2022-12-27T23:01:17.199Z,100725.47
2022-12-27T23:02:19.062Z,100730.81
2022-12-27T23:03:20.785Z,100722.16
2022-12-27T23:04:22.593Z,100724.75
2022-12-27T23:05:24.307Z,100718.63
2022-12-27T23:06:27.657Z,100703.13
2022-12-27T23:08:04.721Z,100716.09
2022-12-27T23:08:51.545Z,100718.06
2022-12-27T23:09:53.221Z,100709.44
2022-12-27T23:11:00.809Z,100716.47
2022-12-27T23:12:02.550Z,100716.63
2022-12-27T23:13:04.297Z,100705.06
2022-12-27T23:14:11.876Z,100708.72
2022-12-27T23:15:13.669Z,100708.84
2022-12-27T23:16:15.685Z,100701.22
2022-12-27T23:17:17.445Z,100704.47
2022-12-27T23:18:19.082Z,100702.06
2022-12-27T23:19:24.688Z,100688.25
2022-12-27T23:20:26.712Z,100696.84
2022-12-27T23:21:28.575Z,100693.44
2022-12-27T23:22:30.168Z,100685.44
2022-12-27T23:23:34.305Z,100689.97
2022-12-27T23:24:36.072Z,100682.03
2022-12-27T23:25:38.004Z,100688.38
2022-12-27T23:26:40.151Z,100688.50
2022-12-27T23:27:41.733Z,100687.63
2022-12-27T23:28:45.121Z,100687.63
2022-12-27T23:29:46.995Z,100675.50
2022-12-27T23:30:50.178Z,100684.25
2022-12-27T23:31:55.275Z,100687.91
2022-12-27T23:32:57.656Z,100687.19
2022-12-27T23:33:59.775Z,100685.50
2022-12-27T23:35:01.433Z,100647.09
2022-12-27T23:36:03.448Z,100685.63
2022-12-27T23:37:05.424Z,100692.78
2022-12-27T23:38:07.145Z,100674.22
2022-12-27T23:39:08.907Z,100684.06
2022-12-27T23:40:11.125Z,100670.84
2022-12-27T23:41:24.862Z,100671.94
2022-12-27T23:42:26.602Z,100669.25
2022-12-27T23:43:51.568Z,100671.94
2022-12-27T23:44:54.328Z,100672.03
2022-12-27T23:45:55.986Z,100674.72
2022-12-27T23:46:57.605Z,100665.13
2022-12-27T23:47:59.291Z,100671.31
2022-12-27T23:49:02.923Z,100666.13
2022-12-27T23:50:06.028Z,100660.78
2022-12-27T23:51:08.227Z,100656.41
2022-12-27T23:52:09.996Z,100654.72
2022-12-27T23:53:11.666Z,100660.06
2022-12-27T23:54:13.247Z,100662.00
2022-12-27T23:55:14.999Z,100656.78
2022-12-27T23:56:19.708Z,100657.88
2022-12-27T23:57:22.692Z,100656.06
2022-12-27T23:58:24.801Z,100649.88
2022-12-27T23:59:27.948Z,100649.03
